Time;durP1;ratioP1;P1;durP2;ratioP2;P2;SDS_P1;SDS_P2;PMS_P1;PMS_P2;Temp;Humidity;BMP_temperature;BMP_pressure;BME280_temperature;BME280_humidity;BME280_pressure;Samples;Min_cycle;Max_cycle;Signal;HPM_P1;HPM_P2
2023/05/21 00:02:05;;;;;;;10.55;6.88;;;;;;;17.84;100.00;100552.63;5072773;28;20059;-81
2023/05/21 00:04:33;;;;;;;12.35;7.88;;;;;;;17.83;100.00;100537.13;5072749;28;20040;-81
2023/05/21 00:07:01;;;;;;;9.63;7.38;;;;;;;17.80;100.00;100537.81;5072634;28;20068;-81
2023/05/21 00:09:29;;;;;;;9.57;7.07;;;;;;;17.84;100.00;100536.03;5070984;28;20056;-81
2023/05/21 00:11:57;;;;;;;10.38;7.40;;;;;;;17.74;100.00;100528.88;5071421;28;20037;-81
2023/05/21 00:14:25;;;;;;;9.68;7.40;;;;;;;17.81;100.00;100534.72;5072478;28;20055;-81
2023/05/21 00:16:53;;;;;;;10.32;7.30;;;;;;;17.86;100.00;100528.19;5072408;28;20051;-81
2023/05/21 00:19:21;;;;;;;10.57;7.63;;;;;;;17.83;100.00;100528.84;5072641;28;20387;-81
2023/05/21 00:21:49;;;;;;;10.82;7.22;;;;;;;17.78;100.00;100537.34;5072302;28;20068;-81
2023/05/21 00:24:17;;;;;;;11.00;7.47;;;;;;;17.80;100.00;100527.53;5072271;28;20047;-81
2023/05/21 00:26:45;;;;;;;9.95;7.18;;;;;;;17.80;100.00;100521.22;5072282;28;20044;-81
2023/05/21 00:29:13;;;;;;;10.52;7.35;;;;;;;17.72;100.00;100520.91;5071985;28;20052;-81
2023/05/21 00:31:41;;;;;;;10.15;7.18;;;;;;;17.81;100.00;100517.28;5072226;28;20044;-81
2023/05/21 00:34:09;;;;;;;10.45;7.82;;;;;;;17.66;100.00;100516.69;5070971;28;20065;-81
2023/05/21 00:36:39;;;;;;;9.95;7.22;;;;;;;17.79;100.00;100508.53;5071612;28;20041;-81
2023/05/21 00:39:07;;;;;;;11.75;7.45;;;;;;;17.83;100.00;100515.00;5071797;28;20402;-81
2023/05/21 00:41:36;;;;;;;10.43;7.75;;;;;;;17.76;100.00;100507.22;5072049;28;20051;-81
2023/05/21 00:44:05;;;;;;;9.55;7.43;;;;;;;17.69;100.00;100509.69;5071900;28;20051;-81
2023/05/21 00:46:34;;;;;;;10.73;6.78;;;;;;;17.78;100.00;100506.91;5071885;28;20588;-81
2023/05/21 00:49:02;;;;;;;10.75;7.75;;;;;;;17.64;100.00;100494.06;5071888;28;20569;-81
2023/05/21 00:51:31;;;;;;;10.63;8.20;;;;;;;17.77;100.00;100495.00;5070877;28;20056;-81
2023/05/21 00:53:59;;;;;;;10.00;7.28;;;;;;;17.80;100.00;100496.31;5087390;28;20399;-81
2023/05/21 00:56:28;;;;;;;10.55;7.32;;;;;;;17.85;100.00;100499.69;5071954;28;20041;-81
2023/05/21 00:58:57;;;;;;;10.52;7.13;;;;;;;17.71;100.00;100490.78;5070601;28;20053;-81
2023/05/21 01:01:26;;;;;;;9.27;7.38;;;;;;;17.75;100.00;100496.47;5070606;28;20049;-81
2023/05/21 01:03:56;;;;;;;9.82;6.95;;;;;;;17.71;100.00;100491.59;5071839;28;20052;-81
2023/05/21 01:06:24;;;;;;;10.93;8.00;;;;;;;17.69;100.00;100488.34;5071746;28;20051;-81
2023/05/21 01:08:56;;;;;;;10.05;8.00;;;;;;;17.77;100.00;100489.47;5070723;28;20052;-81
2023/05/21 01:11:38;;;;;;;12.02;8.02;;;;;;;17.69;100.00;100482.03;5070672;28;20067;-81
2023/05/21 01:14:09;;;;;;;10.20;7.65;;;;;;;17.77;100.00;100488.66;5054521;28;20448;-81
2023/05/21 01:16:39;;;;;;;11.23;7.72;;;;;;;17.79;100.00;100486.38;5071336;28;20060;-81
2023/05/21 01:19:12;;;;;;;14.45;8.10;;;;;;;17.82;100.00;100494.81;5071881;28;20095;-81
2023/05/21 01:21:44;;;;;;;17.17;7.35;;;;;;;17.85;100.00;100488.63;5071723;28;20048;-81
2023/05/21 01:24:14;;;;;;;12.93;7.55;;;;;;;17.92;100.00;100493.66;5087175;28;20051;-82
2023/05/21 01:26:43;;;;;;;19.17;7.95;;;;;;;17.91;100.00;100497.56;5070429;28;20044;-81
2023/05/21 01:29:12;;;;;;;19.20;8.13;;;;;;;17.88;100.00;100484.38;5071428;28;20041;-81
2023/05/21 01:32:19;;;;;;;10.98;7.85;;;;;;;17.89;100.00;100488.75;5087431;28;20044;-81
2023/05/21 01:34:54;;;;;;;12.02;7.30;;;;;;;17.87;100.00;100496.59;5070381;28;20055;-81
2023/05/21 01:37:30;;;;;;;9.23;7.50;;;;;;;17.96;100.00;100486.31;5071717;28;20048;-81
2023/05/21 01:40:45;;;;;;;13.10;7.47;;;;;;;17.80;100.00;100485.22;5071576;28;20487;-82
2023/05/21 01:43:14;;;;;;;;;;;;;;;17.82;100.00;100485.69;5068697;28;20057;-81
2023/05/21 01:45:44;;;;;;;12.18;8.23;;;;;;;17.92;100.00;100479.81;5071460;28;20373;-81
2023/05/21 01:48:13;;;;;;;11.75;8.10;;;;;;;17.96;100.00;100480.78;5070300;28;20534;-81
2023/05/21 01:50:43;;;;;;;11.80;8.15;;;;;;;17.79;100.00;100486.38;5075199;28;20044;-81
2023/05/21 01:53:11;;;;;;;11.77;8.25;;;;;;;17.83;100.00;100477.06;5074020;28;20059;-81
2023/05/21 01:55:40;;;;;;;13.30;8.48;;;;;;;17.85;100.00;100477.53;5073961;28;20048;-81
2023/05/21 01:58:08;;;;;;;11.25;8.32;;;;;;;17.88;100.00;100484.38;5073992;28;20041;-81
2023/05/21 02:00:38;;;;;;;12.40;8.20;;;;;;;17.69;100.00;100477.28;5090567;28;20064;-81
2023/05/21 02:03:07;;;;;;;12.68;8.75;;;;;;;17.82;100.00;100471.84;5075237;28;20052;-81
2023/05/21 02:05:35;;;;;;;12.10;8.43;;;;;;;17.71;100.00;100469.44;5073808;28;20044;-81
2023/05/21 02:08:04;;;;;;;13.13;9.48;;;;;;;17.56;100.00;100470.00;5074985;28;20040;-81
2023/05/21 02:10:32;;;;;;;14.60;8.40;;;;;;;17.56;100.00;100462.50;5090326;28;20049;-81
2023/05/21 02:13:00;;;;;;;11.98;8.55;;;;;;;17.54;100.00;100466.78;5074823;28;20044;-81
2023/05/21 02:15:29;;;;;;;15.02;9.25;;;;;;;17.61;100.00;100464.31;5073648;28;20040;-81
2023/05/21 02:17:57;;;;;;;13.05;9.10;;;;;;;17.72;100.00;100460.03;5073520;28;20044;-81
2023/05/21 02:20:25;;;;;;;13.30;9.15;;;;;;;17.60;100.00;100459.91;5074703;28;20036;-81
2023/05/21 02:22:53;;;;;;;12.30;9.18;;;;;;;17.59;100.00;100463.81;5074610;28;20040;-81
2023/05/21 02:25:21;;;;;;;10.57;8.32;;;;;;;17.68;100.00;100470.13;5073361;28;20048;-81
2023/05/21 02:27:52;;;;;;;12.95;8.63;;;;;;;17.70;100.00;100455.97;5073175;28;20483;-81
2023/05/21 02:30:20;;;;;;;12.50;8.80;;;;;;;17.76;100.00;100453.81;5073474;28;20057;-81
2023/05/21 02:32:48;;;;;;;11.57;8.27;;;;;;;17.70;100.00;100467.84;5074687;28;20051;-81
2023/05/21 02:35:16;;;;;;;12.93;8.40;;;;;;;17.65;100.00;100461.69;5071322;28;20036;-81
2023/05/21 02:37:44;;;;;;;13.85;8.60;;;;;;;17.73;100.00;100450.59;5059671;28;20045;-81
2023/05/21 02:40:14;;;;;;;11.70;8.45;;;;;;;17.70;100.00;100453.19;5060338;28;20040;-81
2023/05/21 02:42:42;;;;;;;11.18;8.90;;;;;;;17.72;100.00;100434.31;5070972;28;20045;-81
2023/05/21 02:45:15;;;;;;;12.98;9.15;;;;;;;17.68;100.00;100450.75;5043538;28;20048;-81
2023/05/21 02:47:43;;;;;;;12.88;9.02;;;;;;;17.75;100.00;100438.38;5089490;28;20040;-81
2023/05/21 02:50:12;;;;;;;13.05;9.02;;;;;;;17.72;100.00;100437.06;5072785;28;20048;-81
2023/05/21 02:52:46;;;;;;;14.10;9.70;;;;;;;17.57;100.00;100443.97;5071939;28;20048;-81
2023/05/21 02:55:14;;;;;;;12.93;9.25;;;;;;;17.46;100.00;100433.25;5089450;28;20414;-81
2023/05/21 02:57:42;;;;;;;13.93;9.80;;;;;;;17.62;100.00;100429.94;5074185;28;20045;-81
2023/05/21 03:00:10;;;;;;;13.43;9.10;;;;;;;17.55;100.00;100429.66;5071851;28;20404;-81
2023/05/21 03:02:39;;;;;;;11.52;8.07;;;;;;;17.41;100.00;100433.44;5072690;28;20045;-81
2023/05/21 03:05:08;;;;;;;12.15;9.40;;;;;;;17.57;100.00;100419.06;5055558;28;20052;-81
2023/05/21 03:07:36;;;;;;;13.55;8.70;;;;;;;17.59;100.00;100422.31;5080519;28;20041;-81
2023/05/21 03:10:05;;;;;;;11.10;8.50;;;;;;;17.58;100.00;100429.81;5073800;28;20060;-81
2023/05/21 03:12:33;;;;;;;12.55;8.38;;;;;;;17.62;100.00;100421.66;5088425;28;20036;-81
2023/05/21 03:15:01;;;;;;;15.07;8.80;;;;;;;17.64;100.00;100427.66;5073760;28;20045;-80
2023/05/21 03:17:31;;;;;;;11.15;7.93;;;;;;;17.48;100.00;100427.41;5072528;28;20706;-81
2023/05/21 03:19:59;;;;;;;10.77;8.30;;;;;;;17.41;100.00;100422.38;5072446;28;20399;-81
2023/05/21 03:22:27;;;;;;;13.57;8.85;;;;;;;17.22;100.00;100424.72;5073723;28;20040;-80
2023/05/21 03:24:55;;;;;;;10.75;8.00;;;;;;;17.21;100.00;100425.84;5072263;28;20060;-81
2023/05/21 03:27:23;;;;;;;12.02;8.27;;;;;;;17.25;100.00;100424.06;5072188;28;20498;-81
2023/05/21 03:29:53;;;;;;;15.60;8.95;;;;;;;17.21;100.00;100423.09;5072076;28;20049;-81
2023/05/21 03:32:22;;;;;;;11.27;8.52;;;;;;;17.38;100.00;100423.03;5089015;28;20666;-81
2023/05/21 03:34:50;;;;;;;12.73;9.18;;;;;;;17.23;100.00;100418.03;5071975;28;20114;-80
2023/05/21 03:37:18;;;;;;;12.27;9.20;;;;;;;17.30;100.00;100412.81;5072024;28;20044;-80
2023/05/21 03:39:47;;;;;;;10.68;8.73;;;;;;;17.40;100.00;100409.69;5072009;28;20048;-81
2023/05/21 03:42:15;;;;;;;12.10;8.55;;;;;;;17.28;100.00;100412.31;5088674;28;20044;-81
2023/05/21 03:44:48;;;;;;;12.68;8.93;;;;;;;17.51;100.00;100414.84;5071987;28;20403;-81
2023/05/21 03:47:36;;;;;;;11.43;9.35;;;;;;;17.59;100.00;100412.06;5064668;28;20057;-81
2023/05/21 03:50:08;;;;;;;12.50;8.77;;;;;;;17.56;100.00;100409.16;5071991;28;20372;-81
2023/05/21 03:52:36;;;;;;;12.95;9.48;;;;;;;17.47;100.00;100420.25;5088629;28;20037;-81
2023/05/21 03:55:05;;;;;;;11.48;8.20;;;;;;;17.46;100.00;100418.63;5088425;28;20040;-81
2023/05/21 03:57:33;;;;;;;14.05;8.70;;;;;;;17.41;100.00;100422.38;5088499;28;20036;-81
2023/05/21 04:00:03;;;;;;;12.00;8.82;;;;;;;17.42;100.00;100412.94;5072756;28;20078;-81
2023/05/21 04:02:31;;;;;;;13.52;8.68;;;;;;;17.55;100.00;100415.81;5072880;28;20044;-81
2023/05/21 04:04:59;;;;;;;12.65;9.27;;;;;;;17.48;100.00;100415.50;5071427;28;20049;-81
2023/05/21 04:07:28;;;;;;;11.00;8.45;;;;;;;17.39;100.00;100418.31;5072546;28;20051;-81
2023/05/21 04:09:56;;;;;;;12.52;9.43;;;;;;;17.43;100.00;100425.63;5072595;28;20049;-81
2023/05/21 04:12:24;;;;;;;13.50;9.32;;;;;;;17.44;100.00;100424.47;5071480;28;20051;-81
2023/05/21 04:14:53;;;;;;;14.23;9.43;;;;;;;17.49;100.00;100428.22;5072382;28;20044;-81
2023/05/21 04:17:21;;;;;;;12.02;8.35;;;;;;;17.51;100.00;100431.47;5072741;28;20060;-81
2023/05/21 04:19:49;;;;;;;11.68;8.45;;;;;;;17.36;100.00;100424.50;5071319;28;20053;-81
2023/05/21 04:22:18;;;;;;;10.73;8.55;;;;;;;17.33;100.00;100426.81;5071408;28;20036;-81
2023/05/21 04:24:47;;;;;;;13.10;8.82;;;;;;;17.42;100.00;100426.78;5072431;28;20041;-81
2023/05/21 04:27:23;;;;;;;11.45;8.13;;;;;;;17.43;100.00;100431.16;5088062;28;20048;-81
2023/05/21 04:29:53;;;;;;;12.55;9.02;;;;;;;17.41;100.00;100433.44;5071160;28;20044;-81
2023/05/21 04:32:23;;;;;;;11.35;8.35;;;;;;;17.50;100.00;100425.09;5055050;28;20048;-81
2023/05/21 04:34:51;;;;;;;11.77;8.32;;;;;;;17.37;100.00;100431.66;5070986;28;20049;-81
2023/05/21 04:37:19;;;;;;;9.98;7.82;;;;;;;17.45;100.00;100428.88;5072362;28;20053;-81
2023/05/21 04:39:47;;;;;;;10.93;7.65;;;;;;;17.52;100.00;100427.53;5072422;28;20399;-81
2023/05/21 04:42:15;;;;;;;10.35;7.85;;;;;;;17.45;100.00;100428.88;5071102;28;20041;-81
2023/05/21 04:44:43;;;;;;;10.55;8.05;;;;;;;17.46;100.00;100430.47;5087777;28;20390;-81
2023/05/21 04:47:13;;;;;;;9.68;7.72;;;;;;;17.48;100.00;100421.03;5070861;28;20044;-81
2023/05/21 04:49:42;;;;;;;8.68;7.70;;;;;;;17.52;100.00;100438.59;5072227;28;20407;-81
2023/05/21 04:52:10;;;;;;;10.75;7.88;;;;;;;17.57;100.00;100436.50;5084798;28;20051;-81
2023/05/21 04:54:40;;;;;;;9.23;7.80;;;;;;;17.62;100.00;100427.19;5087336;28;20041;-83
2023/05/21 04:57:08;;;;;;;10.88;7.90;;;;;;;17.67;100.00;100427.00;5065586;28;20581;-83
2023/05/21 04:59:38;;;;;;;9.85;7.03;;;;;;;17.67;100.00;100434.47;5086841;28;20048;-84
2023/05/21 05:02:06;;;;;;;9.27;7.70;;;;;;;17.73;100.00;100435.91;5070045;28;20423;-82
2023/05/21 05:04:34;;;;;;;15.40;8.13;;;;;;;17.76;100.00;100437.22;5071418;28;20044;-85
2023/05/21 05:07:02;;;;;;;19.02;7.68;;;;;;;17.81;100.00;100428.72;5071757;28;20055;-86
2023/05/21 05:09:30;;;;;;;12.07;7.80;;;;;;;17.90;100.00;100437.81;5085184;28;20385;-96
2023/05/21 05:11:58;;;;;;;13.35;8.55;;;;;;;17.88;100.00;100433.75;5056365;28;20063;-95
2023/05/21 05:14:27;;;;;;;11.60;8.35;;;;;;;17.91;100.00;100444.97;5036815;28;20052;-95
2023/05/21 05:16:59;;;;;;;9.63;6.90;;;;;;;18.00;100.00;100448.47;5033935;28;20510;-95
2023/05/21 05:19:28;;;;;;;8.95;6.93;;;;;;;18.01;100.00;100441.00;5056495;28;20055;-96
2023/05/21 05:21:56;;;;;;;14.32;7.35;;;;;;;18.00;100.00;100448.47;5073809;28;20048;-95
2023/05/21 05:24:24;;;;;;;9.77;6.88;;;;;;;18.06;99.99;100445.56;5052844;28;20097;-95
2023/05/21 05:26:53;;;;;;;9.98;7.15;;;;;;;17.99;100.00;100437.75;5031859;28;20056;-95
2023/05/21 05:29:21;;;;;;;9.27;7.03;;;;;;;18.05;100.00;100438.38;5068578;28;20049;-95
2023/05/21 05:31:49;;;;;;;12.23;7.38;;;;;;;18.06;100.00;100438.06;5045168;28;20044;-95
2023/05/21 05:34:18;;;;;;;10.48;6.47;;;;;;;18.15;98.75;100445.50;5025635;28;20049;-96
2023/05/21 05:36:48;;;;;;;10.35;6.80;;;;;;;18.20;98.22;100437.84;5024983;28;20388;-95
2023/05/21 05:39:16;;;;;;;9.23;7.10;;;;;;;18.17;99.54;100441.25;5036987;28;20055;-95
2023/05/21 05:41:45;;;;;;;11.57;7.43;;;;;;;18.22;98.93;100441.06;5043232;28;20055;-95
2023/05/21 05:44:13;;;;;;;10.63;7.25;;;;;;;18.18;100.00;100445.66;5043691;28;20049;-95
2023/05/21 05:46:43;;;;;;;13.90;7.07;;;;;;;18.18;99.39;100428.25;5060317;28;20064;-95
2023/05/21 05:49:12;;;;;;;9.45;7.15;;;;;;;18.25;98.84;100443.19;5042922;28;20045;-96
2023/05/21 05:51:40;;;;;;;10.27;7.60;;;;;;;18.24;97.66;100447.06;5065267;28;20055;-96
2023/05/21 05:54:09;;;;;;;8.23;6.97;;;;;;;18.32;98.81;100455.69;5056834;28;20045;-86
2023/05/21 05:56:37;;;;;;;10.05;7.82;;;;;;;18.32;100.00;100447.38;5067264;28;20056;-91
2023/05/21 05:59:06;;;;;;;9.82;7.22;;;;;;;18.39;96.95;100447.66;5030686;28;20060;-87
2023/05/21 06:01:37;;;;;;;9.65;7.38;;;;;;;18.43;96.61;100454.13;5071095;28;20056;-94
2023/05/21 06:04:05;;;;;;;8.80;6.45;;;;;;;18.35;98.68;100453.06;5022844;28;20049;-94
2023/05/21 06:06:35;;;;;;;11.80;9.57;;;;;;;18.44;99.13;100444.69;5021849;28;20056;-93
2023/05/21 06:09:03;;;;;;;12.25;8.88;;;;;;;18.49;98.21;100451.97;5038656;28;20045;-91
2023/05/21 06:11:31;;;;;;;12.73;10.02;;;;;;;18.49;99.96;100449.19;5034286;28;20421;-93
2023/05/21 06:14:00;;;;;;;12.95;10.10;;;;;;;18.48;100.00;100448.38;5042969;28;20044;-93
2023/05/21 06:16:31;;;;;;;12.35;9.65;;;;;;;18.52;100.00;100449.34;5042928;28;20052;-95
2023/05/21 06:18:59;;;;;;;19.40;12.27;;;;;;;18.47;100.00;100446.75;5044976;28;20045;-94
2023/05/21 06:21:28;;;;;;;17.73;13.10;;;;;;;18.45;100.00;100446.31;5059664;28;20048;-95
2023/05/21 06:23:56;;;;;;;12.98;8.25;;;;;;;18.50;97.41;100450.81;5041992;28;20044;-95
2023/05/21 06:26:25;;;;;;;15.60;12.30;;;;;;;18.48;100.00;100453.13;5043217;28;20045;-96
2023/05/21 06:28:53;;;;;;;13.85;9.95;;;;;;;18.50;98.21;100456.38;5074476;28;20045;-94
2023/05/21 06:31:21;;;;;;;15.40;10.63;;;;;;;18.51;100.00;100452.44;5042573;28;20064;-96
2023/05/21 06:33:50;;;;;;;13.75;10.40;;;;;;;18.53;100.00;100459.25;5058974;28;20071;-95
2023/05/21 06:36:39;;;;;;;11.52;9.68;;;;;;;18.44;100.00;100452.16;5059635;28;20052;-96
2023/05/21 06:39:17;;;;;;;15.65;10.10;;;;;;;18.54;100.00;100449.81;4984530;22;20667;-96
2023/05/21 06:41:50;;;;;;;15.30;10.23;;;;;;;18.65;99.14;100441.09;4978871;28;20059;-96
2023/05/21 06:44:41;;;;;;;11.65;9.05;;;;;;;18.77;100.00;100443.91;4963931;28;20058;-96
2023/05/21 06:47:36;;;;;;;11.63;9.10;;;;;;;18.89;99.32;100454.25;4959469;28;20502;-88
2023/05/21 06:50:05;;;;;;;11.50;8.55;;;;;;;18.98;100.00;100456.97;4950367;29;20051;-87
2023/05/21 06:52:33;;;;;;;12.10;9.10;;;;;;;19.13;100.00;100460.25;4950159;29;20516;-88
2023/05/21 06:55:02;;;;;;;12.38;8.82;;;;;;;19.26;100.00;100461.13;4967630;28;20043;-86
2023/05/21 06:57:48;;;;;;;12.30;8.05;;;;;;;19.36;98.23;100451.53;4932422;29;20047;-86
2023/05/21 07:00:16;;;;;;;12.13;9.32;;;;;;;19.50;97.63;100460.34;4947854;29;20052;-87
2023/05/21 07:02:44;;;;;;;16.20;9.80;;;;;;;19.65;97.25;100458.06;4955370;28;20067;-86
2023/05/21 07:05:13;;;;;;;15.27;10.10;;;;;;;19.82;99.44;100457.88;4948170;29;20039;-86
2023/05/21 07:07:41;;;;;;;11.38;8.60;;;;;;;19.99;96.42;100467.16;4951434;29;20051;-86
2023/05/21 07:10:10;;;;;;;13.02;9.98;;;;;;;20.15;95.07;100464.50;4951644;29;20051;-85
2023/05/21 07:12:39;;;;;;;15.18;9.65;;;;;;;20.25;93.35;100465.97;4966057;28;20054;-87
2023/05/21 07:15:08;;;;;;;12.95;8.82;;;;;;;20.39;95.51;100462.84;4933435;29;20055;-85
2023/05/21 07:17:36;;;;;;;12.32;8.75;;;;;;;20.58;95.10;100455.84;4952420;29;20409;-85
2023/05/21 07:20:06;;;;;;;14.95;9.52;;;;;;;20.91;96.57;100463.97;4944674;29;20047;-86
2023/05/21 07:22:38;;;;;;;12.85;9.32;;;;;;;21.03;90.79;100459.53;4932481;29;20047;-84
2023/05/21 07:25:08;;;;;;;10.35;7.97;;;;;;;21.25;88.57;100465.69;4915835;29;20430;-84
2023/05/21 07:27:36;;;;;;;11.00;7.93;;;;;;;21.45;83.87;100459.06;4953121;28;20062;-84
2023/05/21 07:30:05;;;;;;;13.38;8.80;;;;;;;21.60;84.71;100456.66;4932720;29;20054;-84
2023/05/21 07:32:33;;;;;;;11.48;8.25;;;;;;;21.61;86.29;100444.38;4933768;29;20055;-84
2023/05/21 07:35:01;;;;;;;10.38;7.60;;;;;;;21.67;85.38;100445.72;4952445;29;20039;-84
2023/05/21 07:37:30;;;;;;;14.10;8.32;;;;;;;21.70;82.43;100444.22;4952544;28;20052;-84
2023/05/21 07:39:58;;;;;;;9.80;7.75;;;;;;;21.91;81.32;100457.84;4948696;28;20043;-84
2023/05/21 07:42:26;;;;;;;10.30;7.10;;;;;;;22.00;77.15;100461.25;4963215;28;20043;-82
2023/05/21 07:44:56;;;;;;;12.00;7.50;;;;;;;22.12;78.47;100467.88;4973298;28;20058;-83
2023/05/21 07:47:26;;;;;;;12.73;7.75;;;;;;;22.03;77.44;100462.50;4949700;29;20402;-83
2023/05/21 07:49:54;;;;;;;12.25;7.65;;;;;;;22.06;77.40;100460.97;4947146;29;20043;-83
2023/05/21 07:52:22;;;;;;;10.82;7.60;;;;;;;22.10;73.41;100453.50;4968864;28;20047;-83
2023/05/21 07:54:50;;;;;;;11.75;7.78;;;;;;;22.12;73.34;100467.88;4954879;28;20517;-84
2023/05/21 07:57:18;;;;;;;15.35;7.72;;;;;;;22.25;75.15;100463.81;4949648;28;20039;-82
2023/05/21 08:00:13;;;;;;;10.02;7.68;;;;;;;22.48;72.27;100474.28;4963452;28;20055;-86
2023/05/21 08:02:51;;;;;;;12.40;8.23;;;;;;;22.72;73.55;100472.41;4950682;28;20042;-87
2023/05/21 08:05:22;;;;;;;12.48;8.13;;;;;;;22.86;74.87;100465.53;4946459;29;20056;-82
2023/05/21 08:07:50;;;;;;;10.65;8.18;;;;;;;22.92;74.15;100467.66;4969694;28;20045;-82
2023/05/21 08:10:19;;;;;;;9.48;7.78;;;;;;;22.96;72.92;100476.09;4962302;28;20040;-81
2023/05/21 08:12:51;;;;;;;12.80;9.05;;;;;;;23.02;72.47;100480.19;4931333;29;20096;-85
2023/05/21 08:15:21;;;;;;;13.05;8.27;;;;;;;22.99;71.56;100475.38;4950290;28;20070;-82
2023/05/21 08:17:49;;;;;;;13.98;8.55;;;;;;;23.04;72.48;100472.28;4945206;29;20052;-80
2023/05/21 08:20:19;;;;;;;15.93;8.80;;;;;;;23.11;73.51;100473.59;4944470;29;20036;-81
2023/05/21 08:22:48;;;;;;;11.23;8.23;;;;;;;23.18;71.78;100482.09;4946862;29;20048;-82
2023/05/21 08:25:17;;;;;;;11.77;8.63;;;;;;;23.10;69.42;100475.56;4997734;28;20050;-82
2023/05/21 08:27:46;;;;;;;14.50;8.00;;;;;;;23.08;69.02;100469.56;4964940;28;20050;-82
2023/05/21 08:30:16;;;;;;;12.38;7.88;;;;;;;23.11;70.69;100477.19;4964904;28;20494;-84
2023/05/21 08:32:44;;;;;;;12.93;8.70;;;;;;;23.05;73.16;100485.06;4948273;29;20043;-85
2023/05/21 08:35:14;;;;;;;12.02;8.45;;;;;;;23.16;69.83;100487.25;4966022;28;20058;-81
2023/05/21 08:38:05;;;;;;;10.05;6.85;;;;;;;23.07;61.57;100479.91;4948323;29;20649;-81
2023/05/21 08:40:53;;;;;;;11.00;7.90;;;;;;;23.16;67.28;100485.25;4967445;28;20409;-84
2023/05/21 08:43:22;;;;;;;8.52;6.75;;;;;;;23.32;61.43;100484.41;4965030;28;20054;-85
2023/05/21 08:45:57;;;;;;;8.00;6.10;;;;;;;23.34;62.11;100484.81;4948754;29;20044;-83
2023/05/21 08:48:31;;;;;;;9.82;6.43;;;;;;;23.46;56.17;100483.84;4953015;28;20043;-86
2023/05/21 08:51:02;;;;;;;9.95;6.18;;;;;;;23.58;57.19;100492.06;4959390;28;20035;-82
2023/05/21 08:53:33;;;;;;;7.35;5.75;;;;;;;23.71;55.27;100480.69;4965950;28;20046;-81
2023/05/21 08:56:05;;;;;;;8.85;5.88;;;;;;;23.87;56.39;100472.97;4965196;28;20145;-82
2023/05/21 08:58:48;;;;;;;8.27;6.03;;;;;;;24.03;54.27;100480.41;4964547;28;20050;-82
2023/05/21 09:01:21;;;;;;;9.07;5.80;;;;;;;24.16;53.46;100478.25;4948971;29;20043;-82
2023/05/21 09:04:16;;;;;;;9.25;6.00;;;;;;;24.14;51.69;100469.41;4949109;29;20055;-83
2023/05/21 09:06:53;;;;;;;7.43;5.70;;;;;;;24.10;53.16;100469.34;4945070;29;20051;-83
2023/05/21 09:10:02;;;;;;;8.25;5.82;;;;;;;24.18;50.42;100484.25;4947749;29;20406;-83
2023/05/21 09:12:31;;;;;;;6.43;5.57;;;;;;;24.14;48.78;100470.22;4962831;28;20051;-83
2023/05/21 09:15:00;;;;;;;7.30;5.65;;;;;;;24.31;50.59;100470.06;4949393;29;20043;-83
2023/05/21 09:17:35;;;;;;;8.30;5.93;;;;;;;24.39;50.19;100468.97;4948765;29;20044;-84
2023/05/21 09:20:25;;;;;;;8.90;5.68;;;;;;;24.49;48.80;100471.09;4948680;28;20047;-93
2023/05/21 09:23:02;;;;;;;9.90;5.35;;;;;;;24.66;48.69;100485.72;4973622;28;20490;-88
2023/05/21 09:25:31;;;;;;;7.50;5.68;;;;;;;24.61;46.06;100478.47;4941009;29;20043;-92
2023/05/21 09:28:14;;;;;;;8.63;5.63;;;;;;;24.72;48.46;100480.59;4946580;29;20059;-86
2023/05/21 09:30:47;;;;;;;6.25;4.95;;;;;;;24.76;43.71;100467.44;4940569;28;20055;-89
2023/05/21 09:33:28;;;;;;;7.55;5.45;;;;;;;24.76;44.98;100475.84;4962860;28;20059;-85
2023/05/21 09:35:56;;;;;;;7.43;5.88;;;;;;;24.89;47.75;100471.66;4936731;29;20051;-86
2023/05/21 09:38:26;;;;;;;9.02;5.53;;;;;;;24.87;47.36;100468.41;4944583;29;20060;-90
2023/05/21 09:40:57;;;;;;;9.23;5.53;;;;;;;24.76;43.54;100470.25;4929996;28;20078;-92
2023/05/21 09:43:27;;;;;;;8.18;6.13;;;;;;;24.98;47.41;100467.75;4936012;29;20387;-88
2023/05/21 09:45:56;;;;;;;6.95;5.63;;;;;;;25.06;46.25;100477.81;4953683;28;20054;-93
2023/05/21 09:48:35;;;;;;;10.32;6.07;;;;;;;24.96;47.15;100468.94;4926746;28;20498;-85
2023/05/21 09:51:13;;;;;;;7.35;5.35;;;;;;;24.99;47.61;100472.16;4948557;29;20398;-91
2023/05/21 09:53:43;;;;;;;7.88;5.20;;;;;;;25.08;45.68;100464.28;4948896;28;20409;-86
2023/05/21 09:56:12;;;;;;;6.20;5.22;;;;;;;25.02;43.51;100461.00;4949212;29;20074;-86
2023/05/21 09:58:40;;;;;;;6.97;4.90;;;;;;;25.21;46.92;100465.59;4950142;29;20043;-86
2023/05/21 10:01:10;;;;;;;8.43;5.07;;;;;;;25.01;45.99;100481.78;4959966;28;20051;-85
2023/05/21 10:03:41;;;;;;;7.20;5.40;;;;;;;25.02;47.61;100477.00;4925147;29;20047;-89
2023/05/21 10:06:10;;;;;;;6.78;5.30;;;;;;;25.07;45.33;100473.88;4931982;29;20378;-88
2023/05/21 10:08:43;;;;;;;9.88;5.63;;;;;;;25.12;47.22;100483.91;4964293;28;20050;-90
2023/05/21 10:11:13;;;;;;;8.50;5.82;;;;;;;25.13;48.06;100472.31;4951374;29;20050;-89
2023/05/21 10:13:47;;;;;;;8.63;5.25;;;;;;;25.22;46.46;100478.41;4916755;29;20060;-87
2023/05/21 10:16:16;;;;;;;10.85;5.55;;;;;;;25.31;44.63;100485.72;4916422;29;20674;-89
2023/05/21 10:18:47;;;;;;;8.63;5.30;;;;;;;25.35;45.10;100472.53;4944708;29;20051;-90
2023/05/21 10:21:17;;;;;;;6.13;5.10;;;;;;;25.38;47.11;100470.97;4951279;28;20050;-89
2023/05/21 10:23:45;;;;;;;7.10;5.05;;;;;;;25.46;45.91;100481.06;4917714;28;20047;-88
2023/05/21 10:26:15;;;;;;;7.30;5.50;;;;;;;25.34;44.96;100476.53;4939538;28;20051;-87
2023/05/21 10:28:44;;;;;;;8.30;5.63;;;;;;;25.51;45.15;100469.47;4948282;29;20055;-90
2023/05/21 10:31:12;;;;;;;10.25;6.82;;;;;;;25.52;45.32;100467.50;4901142;29;20056;-88
2023/05/21 10:33:42;;;;;;;10.10;6.57;;;;;;;25.67;44.55;100469.28;4932088;29;20059;-88
2023/05/21 10:36:10;;;;;;;7.43;5.80;;;;;;;25.72;44.38;100468.91;5015810;28;20062;-89
2023/05/21 10:38:42;;;;;;;9.18;5.88;;;;;;;25.87;45.71;100463.41;4932829;28;20063;-88
2023/05/21 10:41:11;;;;;;;7.93;5.32;;;;;;;25.81;44.54;100464.97;4932947;29;20056;-87
2023/05/21 10:44:11;;;;;;;6.97;5.30;;;;;;;25.92;44.51;100468.66;4948774;29;20048;-87
2023/05/21 10:47:14;;;;;;;7.82;5.00;;;;;;;26.00;45.78;100467.53;4933510;29;20063;-90
2023/05/21 10:50:06;;;;;;;6.32;5.28;;;;;;;25.95;44.24;100467.88;4920403;28;20044;-87
2023/05/21 10:52:56;;;;;;;6.43;5.43;;;;;;;25.58;44.01;100460.38;4934318;29;20044;-89
2023/05/21 10:55:42;;;;;;;7.82;5.15;;;;;;;25.66;44.02;100464.06;4934035;29;20043;-87
2023/05/21 10:58:48;;;;;;;6.63;5.22;;;;;;;25.64;44.42;100447.63;4946678;29;20051;-86
2023/05/21 11:01:18;;;;;;;8.27;4.88;;;;;;;25.57;44.09;100453.16;4967216;28;20056;-85
2023/05/21 11:03:47;;;;;;;7.78;5.05;;;;;;;25.68;41.26;100456.88;4952764;29;20059;-88
2023/05/21 11:06:24;;;;;;;11.52;5.10;;;;;;;26.02;44.25;100448.31;4951752;29;20058;-86
2023/05/21 11:09:16;;;;;;;6.60;4.75;;;;;;;26.06;41.96;100453.13;4952161;29;20437;-88
2023/05/21 11:11:49;;;;;;;6.15;4.53;;;;;;;26.17;42.45;100448.41;4965821;28;20043;-86
2023/05/21 11:14:37;;;;;;;9.48;4.80;;;;;;;26.26;42.45;100446.09;4932997;28;20055;-89
2023/05/21 11:17:15;;;;;;;5.10;4.30;;;;;;;26.27;39.45;100447.72;4951781;29;20059;-86
2023/05/21 11:19:46;;;;;;;5.10;4.28;;;;;;;26.42;42.06;100442.97;4955499;28;20062;-93
2023/05/21 11:22:26;;;;;;;7.38;4.65;;;;;;;26.20;41.68;100436.38;4950597;28;20055;-89
2023/05/21 11:25:00;;;;;;;6.22;4.65;;;;;;;26.25;39.35;100440.88;4950992;29;20063;-93
2023/05/21 11:27:33;;;;;;;7.35;4.88;;;;;;;26.38;41.05;100452.53;4935153;28;20047;-90
2023/05/21 11:30:09;;;;;;;6.13;4.70;;;;;;;26.29;40.66;100444.47;4966899;28;20051;-92
2023/05/21 11:33:07;;;;;;;5.68;4.60;;;;;;;26.32;40.52;100440.91;4968445;28;20058;-89
2023/05/21 11:35:57;;;;;;;6.40;4.47;;;;;;;26.34;40.36;100435.69;4925893;28;20561;-91